createdAt,value
2023-01-19T00:00:40.061Z,77.20
2023-01-19T00:03:15.718Z,77.40
2023-01-19T00:05:43.871Z,77.60
2023-01-19T00:08:15.006Z,77.90
2023-01-19T00:10:43.950Z,77.70
2023-01-19T00:13:11.522Z,77.60
2023-01-19T00:15:38.687Z,77.40
2023-01-19T00:18:05.886Z,77.80
2023-01-19T00:20:35.331Z,78.70
2023-01-19T00:23:03.437Z,79.00
2023-01-19T00:25:30.625Z,79.50
2023-01-19T00:27:59.307Z,78.60
2023-01-19T00:30:27.639Z,78.20
2023-01-19T00:32:54.705Z,78.00
2023-01-19T00:35:21.836Z,77.80
2023-01-19T00:37:48.901Z,77.60
2023-01-19T00:40:16.449Z,77.50
2023-01-19T00:42:48.235Z,77.60
2023-01-19T00:45:18.554Z,77.50
2023-01-19T00:47:46.987Z,77.50
2023-01-19T00:50:19.368Z,77.70
2023-01-19T00:52:46.643Z,78.80
2023-01-19T00:55:15.974Z,79.10
2023-01-19T00:57:43.199Z,79.20
2023-01-19T01:00:13.397Z,79.30
2023-01-19T01:02:42.417Z,79.30
2023-01-19T01:05:10.649Z,79.20
2023-01-19T01:07:40.597Z,79.30
2023-01-19T01:10:13.508Z,78.90
2023-01-19T01:12:42.215Z,79.20
2023-01-19T01:15:26.382Z,79.20
2023-01-19T01:17:53.628Z,78.70
2023-01-19T01:20:23.908Z,78.80
2023-01-19T01:22:53.510Z,78.70
2023-01-19T01:25:22.822Z,78.50
2023-01-19T01:27:50.383Z,78.60
2023-01-19T01:30:18.247Z,78.60
2023-01-19T01:32:45.652Z,78.40
2023-01-19T01:35:13.657Z,78.20
2023-01-19T01:37:42.532Z,78.30
2023-01-19T01:40:13.275Z,78.20
2023-01-19T01:42:40.677Z,78.10
2023-01-19T01:45:28.343Z,77.80
2023-01-19T01:48:18.222Z,78.00
2023-01-19T01:51:09.585Z,78.00
2023-01-19T01:53:38.605Z,77.70
2023-01-19T01:56:10.034Z,78.90
2023-01-19T01:58:38.678Z,79.00
2023-01-19T02:01:26.536Z,78.90
2023-01-19T02:03:58.053Z,79.10
2023-01-19T02:06:26.185Z,79.40
2023-01-19T02:09:21.785Z,79.60
2023-01-19T02:12:07.880Z,79.50
2023-01-19T02:14:37.275Z,79.70
2023-01-19T02:17:05.557Z,79.40
2023-01-19T02:19:42.587Z,79.20
2023-01-19T02:22:12.823Z,79.10
2023-01-19T02:24:40.038Z,79.00
2023-01-19T02:27:07.721Z,78.90
2023-01-19T02:29:35.502Z,79.10
2023-01-19T02:32:03.068Z,78.90
2023-01-19T02:34:30.436Z,79.30
2023-01-19T02:37:13.138Z,79.50
2023-01-19T02:39:45.733Z,79.10
2023-01-19T02:42:17.122Z,79.10
2023-01-19T02:44:48.104Z,78.90
2023-01-19T02:47:15.377Z,78.90
2023-01-19T02:49:42.797Z,78.90
2023-01-19T02:52:18.218Z,78.60
2023-01-19T02:54:54.610Z,78.80
2023-01-19T02:57:33.666Z,78.70
2023-01-19T03:00:25.284Z,78.70
2023-01-19T03:03:30.601Z,78.70
2023-01-19T03:06:06.624Z,78.80
2023-01-19T03:08:53.362Z,79.10
2023-01-19T03:11:20.871Z,78.90
2023-01-19T03:13:57.886Z,79.60
2023-01-19T03:16:39.280Z,79.80
2023-01-19T03:19:19.636Z,79.80
2023-01-19T03:21:52.788Z,79.40
2023-01-19T03:24:23.228Z,79.30
2023-01-19T03:26:58.736Z,79.20
2023-01-19T03:29:31.723Z,78.90
2023-01-19T03:32:02.934Z,78.90
2023-01-19T03:34:30.735Z,79.40
2023-01-19T03:37:03.090Z,79.70
2023-01-19T03:39:30.814Z,79.80
2023-01-19T03:42:03.958Z,79.70
2023-01-19T03:44:34.425Z,79.70
2023-01-19T03:47:04.073Z,79.10
2023-01-19T03:49:32.277Z,79.00
2023-01-19T03:51:59.943Z,79.60
2023-01-19T03:54:27.222Z,79.80
2023-01-19T03:56:54.362Z,80.40
2023-01-19T03:59:21.843Z,80.60
2023-01-19T04:01:49.384Z,80.80
2023-01-19T04:04:16.699Z,81.00
2023-01-19T04:06:44.052Z,81.00
2023-01-19T04:09:11.143Z,81.60
2023-01-19T04:11:38.230Z,80.90
2023-01-19T04:14:05.295Z,80.50
2023-01-19T04:16:32.363Z,81.00
2023-01-19T04:18:59.463Z,80.40
2023-01-19T04:21:26.572Z,80.40
2023-01-19T04:23:53.807Z,80.30
2023-01-19T04:26:21.063Z,80.60
2023-01-19T04:28:48.148Z,81.10
2023-01-19T04:31:15.273Z,80.60
2023-01-19T04:33:42.440Z,80.50
2023-01-19T04:36:09.590Z,80.10
2023-01-19T04:38:36.732Z,80.00
2023-01-19T04:41:03.917Z,79.80
2023-01-19T04:43:31.248Z,79.20
2023-01-19T04:45:58.951Z,79.10
2023-01-19T04:48:26.212Z,79.10
2023-01-19T04:50:53.789Z,78.90
2023-01-19T04:53:20.861Z,79.00
2023-01-19T04:55:48.040Z,78.80
2023-01-19T04:58:15.114Z,78.70
2023-01-19T05:00:42.236Z,78.50
2023-01-19T05:03:09.416Z,78.80
2023-01-19T05:05:36.619Z,78.40
2023-01-19T05:08:03.961Z,77.80
2023-01-19T05:10:31.065Z,77.60
2023-01-19T05:12:58.513Z,77.30
2023-01-19T05:15:25.681Z,77.00
2023-01-19T05:17:52.817Z,76.90
2023-01-19T05:20:19.928Z,76.90
2023-01-19T05:22:51.197Z,77.30
2023-01-19T05:25:18.640Z,78.10
2023-01-19T05:27:45.924Z,78.30
2023-01-19T05:30:13.928Z,78.20
2023-01-19T05:32:41.079Z,78.30
2023-01-19T05:35:08.821Z,78.10
2023-01-19T05:37:36.097Z,77.90
2023-01-19T05:40:03.696Z,77.80
2023-01-19T05:42:32.742Z,77.70
2023-01-19T05:45:00.181Z,77.80
2023-01-19T05:47:29.974Z,77.70
2023-01-19T05:49:57.350Z,77.60
2023-01-19T05:52:27.340Z,77.60
2023-01-19T05:54:55.166Z,77.60
2023-01-19T05:57:22.766Z,77.50
2023-01-19T05:59:49.951Z,77.50
2023-01-19T06:02:17.208Z,77.70
2023-01-19T06:04:44.757Z,77.90
2023-01-19T06:07:11.893Z,77.70
2023-01-19T06:09:39.029Z,78.20
2023-01-19T06:12:06.479Z,78.00
2023-01-19T06:14:33.639Z,78.00
2023-01-19T06:17:00.784Z,78.10
2023-01-19T06:19:27.852Z,78.30
2023-01-19T06:21:54.916Z,78.50
2023-01-19T06:24:23.003Z,78.80
2023-01-19T06:26:50.051Z,78.80
2023-01-19T06:29:17.322Z,78.90
2023-01-19T06:31:44.509Z,78.90
2023-01-19T06:34:11.651Z,78.90
2023-01-19T06:36:38.821Z,78.80
2023-01-19T06:39:06.231Z,78.50
2023-01-19T06:41:34.079Z,78.60
2023-01-19T06:44:01.651Z,78.50
2023-01-19T06:46:29.497Z,78.40
2023-01-19T06:48:56.898Z,78.20
2023-01-19T06:51:24.199Z,78.60
2023-01-19T06:53:51.298Z,78.00
2023-01-19T06:56:18.380Z,78.10
2023-01-19T06:58:48.083Z,77.80
2023-01-19T07:01:15.393Z,77.80
2023-01-19T07:03:42.573Z,77.30
2023-01-19T07:06:09.811Z,76.60
2023-01-19T07:08:38.174Z,76.20
2023-01-19T07:11:24.659Z,75.90
2023-01-19T07:13:55.290Z,76.20
2023-01-19T07:16:23.153Z,76.10
2023-01-19T07:18:50.792Z,75.70
2023-01-19T07:21:18.310Z,75.30
2023-01-19T07:23:48.821Z,75.00
2023-01-19T07:26:18.480Z,74.80
2023-01-19T07:28:47.362Z,75.40
2023-01-19T07:31:16.039Z,75.30
2023-01-19T07:33:43.255Z,75.70
2023-01-19T07:36:10.979Z,76.30
2023-01-19T07:38:38.054Z,76.50
2023-01-19T07:41:07.617Z,76.50
2023-01-19T07:43:34.831Z,76.90
2023-01-19T07:46:04.811Z,76.70
2023-01-19T07:48:32.026Z,76.80
2023-01-19T07:51:11.755Z,77.40
2023-01-19T07:53:39.997Z,76.80
2023-01-19T07:56:07.698Z,76.90
2023-01-19T07:58:34.817Z,77.20
2023-01-19T08:01:07.099Z,77.30
2023-01-19T08:03:34.350Z,77.40
2023-01-19T08:06:02.379Z,77.80
2023-01-19T08:08:30.099Z,78.10
2023-01-19T08:10:57.156Z,78.00
2023-01-19T08:13:24.879Z,78.20
2023-01-19T08:15:53.704Z,78.20
2023-01-19T08:18:20.989Z,78.00
2023-01-19T08:20:48.133Z,77.60
2023-01-19T08:23:15.378Z,77.80
2023-01-19T08:25:44.974Z,77.80
2023-01-19T08:28:15.857Z,77.60
2023-01-19T08:30:44.872Z,77.50
2023-01-19T08:33:12.989Z,77.10
2023-01-19T08:35:42.084Z,77.30
2023-01-19T08:38:10.331Z,77.30
2023-01-19T08:40:39.309Z,77.10
2023-01-19T08:43:09.667Z,77.00
2023-01-19T08:45:38.106Z,76.20
2023-01-19T08:48:06.329Z,75.60
2023-01-19T08:50:34.217Z,74.70
2023-01-19T08:53:03.372Z,72.50
2023-01-19T08:55:30.774Z,72.60
2023-01-19T08:57:59.915Z,72.10
2023-01-19T09:00:27.909Z,71.20
2023-01-19T09:02:56.511Z,71.10
2023-01-19T09:05:24.250Z,70.50
2023-01-19T09:07:51.652Z,70.30
2023-01-19T09:10:19.264Z,73.30
2023-01-19T09:12:46.455Z,72.10
2023-01-19T09:15:14.056Z,72.10
2023-01-19T09:17:42.259Z,72.50
2023-01-19T09:20:10.028Z,72.60
2023-01-19T09:22:39.071Z,72.30
2023-01-19T09:25:07.593Z,70.00
2023-01-19T09:27:34.870Z,70.30
2023-01-19T09:30:04.440Z,70.60
2023-01-19T09:32:31.616Z,70.20
2023-01-19T09:34:58.674Z,71.40
2023-01-19T09:37:25.737Z,71.30
2023-01-19T09:39:52.833Z,70.80
2023-01-19T09:42:45.817Z,69.60
2023-01-19T09:45:36.235Z,73.40
2023-01-19T09:48:08.352Z,70.10
2023-01-19T09:50:39.712Z,68.60
2023-01-19T09:53:40.410Z,67.10
2023-01-19T09:56:15.799Z,67.70
2023-01-19T09:58:43.113Z,68.00
2023-01-19T10:01:26.867Z,68.40
2023-01-19T10:04:05.906Z,68.50
2023-01-19T10:06:33.129Z,69.50
2023-01-19T10:09:20.912Z,69.90
2023-01-19T10:11:56.716Z,70.40
2023-01-19T10:14:45.408Z,71.00
2023-01-19T10:17:33.593Z,70.90
2023-01-19T10:20:03.255Z,71.20
2023-01-19T10:22:30.313Z,71.40
2023-01-19T10:25:01.814Z,71.70
2023-01-19T10:27:31.511Z,72.10
2023-01-19T10:30:00.391Z,72.40
2023-01-19T10:32:32.614Z,72.60
2023-01-19T10:35:00.917Z,72.50
2023-01-19T10:37:30.617Z,72.90
2023-01-19T10:40:15.789Z,73.10
2023-01-19T10:42:42.849Z,71.10
2023-01-19T10:45:18.950Z,73.20
2023-01-19T10:47:47.415Z,73.30
2023-01-19T10:50:26.165Z,73.70
2023-01-19T10:52:57.207Z,73.80
2023-01-19T10:55:35.550Z,73.90
2023-01-19T10:58:02.649Z,73.80
2023-01-19T11:00:37.681Z,73.70
2023-01-19T11:03:23.031Z,73.70
2023-01-19T11:05:50.953Z,73.40
2023-01-19T11:08:30.306Z,73.70
2023-01-19T11:11:12.242Z,73.40
2023-01-19T11:13:41.212Z,73.50
2023-01-19T11:16:17.072Z,73.40
2023-01-19T11:18:45.410Z,73.40
2023-01-19T11:21:15.434Z,73.40
2023-01-19T11:23:50.882Z,73.00
2023-01-19T11:26:41.464Z,73.80
2023-01-19T11:29:22.334Z,72.80
2023-01-19T11:31:50.445Z,72.70
2023-01-19T11:34:32.937Z,72.40
2023-01-19T11:37:03.664Z,72.20
2023-01-19T11:39:47.027Z,72.20
2023-01-19T11:42:15.768Z,72.20
2023-01-19T11:45:02.520Z,72.20
2023-01-19T11:47:39.254Z,72.40
2023-01-19T11:50:28.258Z,72.40
2023-01-19T11:53:06.231Z,72.40
2023-01-19T11:55:48.157Z,72.90
2023-01-19T11:58:19.583Z,73.10
2023-01-19T12:01:00.315Z,73.20
2023-01-19T12:03:38.467Z,73.20
2023-01-19T12:06:13.994Z,73.40
2023-01-19T12:08:53.952Z,73.60
2023-01-19T12:11:36.000Z,73.50
2023-01-19T12:14:04.272Z,73.30
2023-01-19T12:16:34.093Z,73.60
2023-01-19T12:19:20.894Z,73.40
2023-01-19T12:21:48.406Z,73.50
2023-01-19T12:24:28.799Z,73.60
2023-01-19T12:27:15.379Z,73.30
2023-01-19T12:29:43.327Z,72.90
2023-01-19T12:32:13.643Z,73.00
2023-01-19T12:34:42.343Z,73.30
2023-01-19T12:37:29.633Z,73.50
2023-01-19T12:40:23.542Z,73.70
2023-01-19T12:43:05.428Z,73.80
2023-01-19T12:45:35.004Z,74.00
2023-01-19T12:48:03.887Z,74.10
2023-01-19T12:50:37.716Z,73.90
2023-01-19T12:53:15.514Z,73.80
2023-01-19T12:55:46.536Z,73.50
2023-01-19T12:58:21.516Z,73.80
2023-01-19T13:00:50.538Z,73.60
2023-01-19T13:03:17.598Z,74.20
2023-01-19T13:05:44.682Z,73.70
2023-01-19T13:08:12.501Z,73.70
2023-01-19T13:11:10.562Z,73.50
2023-01-19T13:13:38.610Z,73.20
2023-01-19T13:16:29.765Z,73.10
2023-01-19T13:19:09.937Z,73.10
2023-01-19T13:21:45.859Z,73.50
2023-01-19T13:24:15.758Z,72.60
2023-01-19T13:27:00.061Z,72.40
2023-01-19T13:29:36.267Z,72.30
2023-01-19T13:32:18.732Z,72.10
2023-01-19T13:34:51.663Z,72.20
2023-01-19T13:37:22.609Z,72.00
2023-01-19T13:39:53.616Z,72.30
2023-01-19T13:42:37.505Z,72.30
2023-01-19T13:45:33.646Z,72.20
2023-01-19T13:48:05.166Z,72.40
2023-01-19T13:50:38.539Z,71.90
2023-01-19T13:53:20.624Z,72.30
2023-01-19T13:55:48.060Z,72.70
2023-01-19T13:58:22.499Z,72.10
2023-01-19T14:00:49.989Z,72.60
2023-01-19T14:03:24.825Z,72.60
2023-01-19T14:05:54.317Z,72.70
2023-01-19T14:08:22.407Z,73.00
2023-01-19T14:10:56.160Z,72.90
2023-01-19T14:13:30.888Z,72.90
2023-01-19T14:16:00.667Z,72.70
2023-01-19T14:18:32.574Z,72.60
2023-01-19T14:21:07.724Z,72.80
2023-01-19T14:23:47.363Z,72.70
2023-01-19T14:26:51.204Z,72.70
2023-01-19T14:29:33.249Z,72.50
2023-01-19T14:32:00.296Z,72.30
2023-01-19T14:34:44.686Z,71.70
2023-01-19T14:37:21.493Z,71.50
2023-01-19T14:39:59.173Z,71.50
2023-01-19T14:42:29.745Z,71.30
2023-01-19T14:44:59.329Z,71.70
2023-01-19T14:47:36.845Z,71.90
2023-01-19T14:50:35.169Z,72.80
2023-01-19T14:53:24.236Z,72.90
2023-01-19T14:55:55.442Z,72.70
2023-01-19T14:58:25.948Z,71.60
2023-01-19T15:00:56.433Z,72.30
2023-01-19T15:03:31.927Z,72.70
2023-01-19T15:06:15.707Z,73.00
2023-01-19T15:08:43.740Z,73.30
2023-01-19T15:11:22.645Z,73.60
2023-01-19T15:13:50.539Z,73.70
2023-01-19T15:16:18.306Z,73.80
2023-01-19T15:18:45.456Z,74.20
2023-01-19T15:21:15.369Z,74.30
2023-01-19T15:23:42.512Z,74.70
2023-01-19T15:26:15.012Z,74.70
2023-01-19T15:28:42.188Z,74.90
2023-01-19T15:31:14.951Z,75.70
2023-01-19T15:33:42.222Z,75.00
2023-01-19T15:36:15.299Z,76.30
2023-01-19T15:38:44.090Z,76.10
2023-01-19T15:41:18.597Z,75.80
2023-01-19T15:43:45.640Z,76.30
2023-01-19T15:46:15.820Z,77.10
2023-01-19T15:48:43.840Z,77.50
2023-01-19T15:51:14.912Z,77.30
2023-01-19T15:53:43.007Z,76.70
2023-01-19T15:56:18.574Z,77.00
2023-01-19T15:58:45.720Z,77.20
2023-01-19T16:01:18.647Z,77.30
2023-01-19T16:03:46.416Z,77.70
2023-01-19T16:06:16.104Z,77.90
2023-01-19T16:08:43.307Z,77.90
2023-01-19T16:11:13.504Z,77.80
2023-01-19T16:13:44.003Z,77.60
2023-01-19T16:16:19.893Z,78.10
2023-01-19T16:18:47.034Z,78.30
2023-01-19T16:21:14.424Z,78.10
2023-01-19T16:23:41.524Z,77.80
2023-01-19T16:26:30.278Z,78.10
2023-01-19T16:29:10.315Z,78.10
2023-01-19T16:31:39.155Z,78.20
2023-01-19T16:34:06.967Z,78.00
2023-01-19T16:36:35.934Z,78.20
2023-01-19T16:39:10.508Z,77.90
2023-01-19T16:41:37.718Z,77.80
2023-01-19T16:44:05.543Z,78.10
2023-01-19T16:46:35.624Z,78.00
2023-01-19T16:49:06.043Z,77.80
2023-01-19T16:51:33.604Z,78.10
2023-01-19T16:54:00.728Z,78.00
2023-01-19T16:56:28.092Z,78.00
2023-01-19T16:58:56.491Z,78.30
2023-01-19T17:01:25.253Z,79.00
2023-01-19T17:03:52.632Z,78.90
2023-01-19T17:06:24.863Z,79.20
2023-01-19T17:08:52.784Z,78.80
2023-01-19T17:11:22.870Z,78.60
2023-01-19T17:13:54.355Z,78.70
2023-01-19T17:16:23.159Z,78.90
2023-01-19T17:18:50.843Z,78.80
2023-01-19T17:21:19.325Z,79.00
2023-01-19T17:23:48.203Z,79.10
2023-01-19T17:26:16.211Z,79.10
2023-01-19T17:28:43.850Z,78.80
2023-01-19T17:31:18.288Z,78.80
2023-01-19T17:33:49.943Z,77.80
2023-01-19T17:36:22.923Z,77.70
2023-01-19T17:38:50.806Z,77.80
2023-01-19T17:41:24.252Z,76.80
2023-01-19T17:43:52.036Z,77.20
2023-01-19T17:46:21.155Z,77.20
2023-01-19T17:48:56.737Z,77.70
2023-01-19T17:51:24.614Z,77.60
2023-01-19T17:53:52.857Z,77.30
2023-01-19T17:56:22.555Z,77.10
2023-01-19T17:58:49.823Z,77.20
2023-01-19T18:01:23.183Z,77.10
2023-01-19T18:03:50.591Z,77.50
2023-01-19T18:06:17.653Z,77.20
2023-01-19T18:08:47.291Z,77.20
2023-01-19T18:11:16.505Z,77.40
2023-01-19T18:13:45.488Z,77.20
2023-01-19T18:16:15.419Z,77.20
2023-01-19T18:18:44.085Z,77.10
2023-01-19T18:21:13.581Z,77.40
2023-01-19T18:23:43.154Z,77.40
2023-01-19T18:26:15.659Z,77.40
2023-01-19T18:28:42.752Z,77.30
2023-01-19T18:31:12.188Z,77.30
2023-01-19T18:33:39.786Z,77.10
2023-01-19T18:36:07.892Z,77.10
2023-01-19T18:38:35.451Z,77.10
2023-01-19T18:41:14.201Z,77.00
2023-01-19T18:43:41.445Z,77.00
2023-01-19T18:46:08.937Z,77.20
2023-01-19T18:48:37.076Z,77.00
2023-01-19T18:51:12.404Z,76.90
2023-01-19T18:53:40.227Z,76.60
2023-01-19T18:56:08.504Z,77.00
2023-01-19T18:58:37.775Z,76.60
2023-01-19T19:01:16.215Z,76.40
2023-01-19T19:03:43.387Z,76.40
2023-01-19T19:06:10.419Z,76.40
2023-01-19T19:08:37.597Z,76.40
2023-01-19T19:11:08.497Z,76.10
2023-01-19T19:13:36.568Z,75.80
2023-01-19T19:16:05.184Z,75.80
2023-01-19T19:18:33.989Z,75.70
2023-01-19T19:21:06.585Z,75.60
2023-01-19T19:23:34.104Z,75.60
2023-01-19T19:26:06.433Z,75.20
2023-01-19T19:28:35.043Z,75.00
2023-01-19T19:31:07.926Z,74.60
2023-01-19T19:33:35.886Z,75.40
2023-01-19T19:36:04.274Z,75.90
2023-01-19T19:38:31.763Z,75.50
2023-01-19T19:41:00.330Z,75.70
2023-01-19T19:43:27.652Z,75.50
2023-01-19T19:46:03.259Z,75.70
2023-01-19T19:48:30.423Z,76.00
2023-01-19T19:51:17.685Z,75.70
2023-01-19T19:53:46.416Z,75.50
2023-01-19T19:56:14.075Z,75.30
2023-01-19T19:58:42.761Z,75.60
2023-01-19T20:01:14.124Z,75.40
2023-01-19T20:03:41.884Z,76.40
2023-01-19T20:06:15.327Z,75.90
2023-01-19T20:08:42.580Z,75.40
2023-01-19T20:11:15.362Z,75.20
2023-01-19T20:13:43.654Z,75.70
2023-01-19T20:16:13.893Z,75.40
2023-01-19T20:18:42.569Z,75.50
2023-01-19T20:21:25.170Z,75.40
2023-01-19T20:23:53.591Z,75.10
2023-01-19T20:26:25.077Z,74.90
2023-01-19T20:28:53.017Z,74.60
2023-01-19T20:31:26.738Z,74.50
2023-01-19T20:33:55.691Z,74.70
2023-01-19T20:36:24.286Z,74.70
2023-01-19T20:38:53.160Z,74.60
2023-01-19T20:41:21.950Z,74.60
2023-01-19T20:43:49.159Z,74.30
2023-01-19T20:46:16.253Z,74.20
2023-01-19T20:48:43.457Z,74.50
2023-01-19T20:51:12.783Z,73.60
2023-01-19T20:53:41.219Z,73.70
2023-01-19T20:56:11.709Z,73.60
2023-01-19T20:58:39.351Z,73.00
2023-01-19T21:01:14.783Z,73.20
2023-01-19T21:03:42.597Z,73.20
2023-01-19T21:06:10.559Z,73.00
2023-01-19T21:08:37.850Z,72.90
2023-01-19T21:11:06.629Z,72.60
2023-01-19T21:13:34.666Z,72.90
2023-01-19T21:16:02.005Z,73.00
2023-01-19T21:18:29.225Z,72.80
2023-01-19T21:20:59.135Z,72.60
2023-01-19T21:23:27.439Z,72.60
2023-01-19T21:25:59.548Z,72.80
2023-01-19T21:28:28.091Z,73.00
2023-01-19T21:30:56.248Z,73.10
2023-01-19T21:33:23.848Z,72.80
2023-01-19T21:35:56.659Z,72.60
2023-01-19T21:38:29.320Z,72.60
2023-01-19T21:40:57.679Z,72.30
2023-01-19T21:43:26.466Z,72.20
2023-01-19T21:45:53.671Z,72.10
2023-01-19T21:48:20.802Z,72.30
2023-01-19T21:50:57.269Z,72.40
2023-01-19T21:53:24.380Z,72.40
2023-01-19T21:55:51.520Z,72.50
2023-01-19T21:58:18.573Z,72.40
2023-01-19T22:00:45.681Z,72.30
2023-01-19T22:03:12.816Z,71.80
2023-01-19T22:05:39.893Z,71.90
2023-01-19T22:08:07.245Z,71.60
2023-01-19T22:10:37.507Z,71.70
2023-01-19T22:13:06.497Z,71.60
2023-01-19T22:15:33.848Z,71.60
2023-01-19T22:18:01.074Z,71.80
2023-01-19T22:20:28.307Z,71.90
2023-01-19T22:22:56.457Z,72.20
2023-01-19T22:25:27.531Z,71.80
2023-01-19T22:27:55.544Z,71.70
2023-01-19T22:30:22.752Z,72.10
2023-01-19T22:32:49.922Z,72.10
2023-01-19T22:35:17.018Z,72.40
2023-01-19T22:37:44.191Z,72.80
2023-01-19T22:40:11.777Z,72.70
2023-01-19T22:42:38.856Z,72.40
2023-01-19T22:45:06.537Z,72.30
2023-01-19T22:47:33.639Z,71.90
2023-01-19T22:50:00.709Z,71.90
2023-01-19T22:52:27.750Z,72.00
2023-01-19T22:54:57.510Z,71.60
2023-01-19T22:57:24.679Z,71.90
2023-01-19T22:59:51.748Z,72.00
2023-01-19T23:02:20.753Z,71.60
2023-01-19T23:04:48.134Z,71.60
2023-01-19T23:07:15.243Z,71.40
2023-01-19T23:09:42.499Z,71.30
2023-01-19T23:12:09.550Z,71.10
2023-01-19T23:14:36.672Z,70.50
2023-01-19T23:17:04.018Z,70.80
2023-01-19T23:19:31.243Z,70.10
2023-01-19T23:21:58.327Z,69.40
2023-01-19T23:24:25.492Z,69.80
2023-01-19T23:26:52.580Z,70.10
2023-01-19T23:29:19.805Z,70.40
2023-01-19T23:31:48.714Z,70.30
2023-01-19T23:34:16.878Z,70.40
2023-01-19T23:36:44.451Z,70.80
2023-01-19T23:39:17.316Z,70.80
2023-01-19T23:41:44.574Z,70.50
2023-01-19T23:44:11.772Z,70.50
2023-01-19T23:46:38.974Z,70.90
2023-01-19T23:49:06.110Z,71.80
2023-01-19T23:51:33.876Z,71.60
2023-01-19T23:54:01.308Z,71.80
2023-01-19T23:56:33.911Z,72.50
2023-01-19T23:59:03.904Z,72.40
